Time;durP1;ratioP1;P1;durP2;ratioP2;P2;SDS_P1;SDS_P2;PMS_P1;PMS_P2;Temp;Humidity;BMP_temperature;BMP_pressure;BME280_temperature;BME280_humidity;BME280_pressure;Samples;Min_cycle;Max_cycle;Signal;HPM_P1;HPM_P2
2020/12/17 00:01:09;;;;;;;48.33;30.93;;;;;;;;;;4591838;28;20273;-74
2020/12/17 00:03:26;;;;;;;42.20;27.97;;;;;;;;;;4590661;28;20546;-76
2020/12/17 00:05:41;;;;;;;48.53;30.90;;;;;;;;;;4589866;28;20444;-78
2020/12/17 00:07:57;;;;;;;45.73;28.53;;;;;;;;;;4592004;28;20838;-78
2020/12/17 00:10:15;;;;;;;43.00;27.57;;;8.30;77.30;;;;;;4588369;28;20534;-76
2020/12/17 00:12:34;;;;;;;43.83;27.33;;;8.20;77.30;;;;;;4593166;28;20439;-77
2020/12/17 00:14:50;;;;;;;40.17;26.23;;;;;;;;;;4595186;28;20800;-78
2020/12/17 00:17:06;;;;;;;37.60;25.83;;;;;;;;;;4596149;28;20451;-78
2020/12/17 00:19:23;;;;;;;40.97;26.60;;;7.70;82.50;;;;;;4595470;28;20498;-78
2020/12/17 00:21:39;;;;;;;39.03;24.53;;;;;;;;;;4595797;28;20538;-76
2020/12/17 00:23:56;;;;;;;37.33;25.37;;;7.80;82.60;;;;;;4595504;28;20791;-76
2020/12/17 00:26:12;;;;;;;40.90;25.97;;;;;;;;;;4595979;28;20440;-76
2020/12/17 00:28:28;;;;;;;41.90;26.33;;;9.00;83.40;;;;;;4595312;28;20443;-76
2020/12/17 00:30:43;;;;;;;45.43;27.27;;;;;;;;;;4595858;28;20543;-77
2020/12/17 00:32:59;;;;;;;44.50;29.17;;;;;;;;;;4595161;28;20444;-76
2020/12/17 00:35:18;;;;;;;46.47;27.73;;;;;;;;;;4594135;28;20301;-76
2020/12/17 00:37:35;;;;;;;42.13;26.77;;;;;;;;;;4595419;28;20432;-76
2020/12/17 00:39:51;;;;;;;45.50;27.73;;;;;;;;;;4595199;28;20513;-76
2020/12/17 00:42:07;;;;;;;46.67;28.53;;;;;;;;;;4595523;28;20788;-75
2020/12/17 00:44:22;;;;;;;48.17;30.10;;;;;;;;;;4595309;28;20440;-77
2020/12/17 00:46:38;;;;;;;45.83;28.53;;;;;;;;;;4595668;28;20799;-76
2020/12/17 00:48:54;;;;;;;47.67;29.73;;;;;;;;;;4595039;28;20538;-76
2020/12/17 00:51:13;;;;;;;47.73;29.73;;;;;;;;;;4595822;28;20530;-77
2020/12/17 00:53:29;;;;;;;51.80;30.20;;;;;;;;;;4594875;28;20436;-77
2020/12/17 00:55:46;;;;;;;48.27;29.70;;;;;;;;;;4594089;28;20484;-76
2020/12/17 00:58:01;;;;;;;47.90;30.37;;;;;;;;;;4594793;28;20452;-76
2020/12/17 01:00:17;;;;;;;49.03;30.10;;;;;;;;;;4595470;28;20451;-76
2020/12/17 01:02:33;;;;;;;49.10;29.33;;;8.70;83.20;;;;;;4593419;28;20475;-75
2020/12/17 01:04:49;;;;;;;51.97;32.67;;;;;;;;;;4595279;28;20444;-75
2020/12/17 01:07:06;;;;;;;56.57;32.20;;;7.90;82.50;;;;;;4594850;28;20450;-77
2020/12/17 01:09:22;;;;;;;54.43;32.17;;;;;;;;;;4595133;28;20482;-76
2020/12/17 01:11:37;;;;;;;53.57;33.20;;;;;;;;;;4594697;28;20447;-75
2020/12/17 01:13:53;;;;;;;51.60;30.70;;;9.10;83.40;;;;;;4595154;28;20447;-76
2020/12/17 01:16:09;;;;;;;51.87;32.03;;;;;;;;;;4593576;28;20482;-76
2020/12/17 01:18:25;;;;;;;53.57;33.17;;;;;;;;;;4593477;28;20452;-76
2020/12/17 01:20:42;;;;;;;50.47;31.53;;;;;;;;;;4594807;28;20436;-76
2020/12/17 01:22:58;;;;;;;47.23;30.80;;;8.30;79.60;;;;;;4594153;28;20495;-77
2020/12/17 01:25:15;;;;;;;48.83;32.03;;;;;;;;;;4594744;28;20495;-76
2020/12/17 01:27:32;;;;;;;55.40;33.43;;;6.00;76.60;;;;;;4594680;28;20818;-77
2020/12/17 01:29:47;;;;;;;50.53;31.50;;;;;;;;;;4593576;28;20520;-76
2020/12/17 01:32:03;;;;;;;55.80;32.23;;;;;;;;;;4594284;28;20510;-76
2020/12/17 01:34:19;;;;;;;52.63;32.93;;;;;;;;;;4594819;28;20451;-77
2020/12/17 01:36:34;;;;;;;57.70;32.83;;;;;;;;;;4594150;28;20472;-76
2020/12/17 01:38:51;;;;;;;52.13;32.20;;;;;;;;;;4593659;28;20487;-77
2020/12/17 01:41:08;;;;;;;53.43;31.67;;;;;;;;;;4592851;28;20468;-76
2020/12/17 01:43:24;;;;;;;49.77;31.57;;;;;;;;;;4593586;28;20436;-77
2020/12/17 01:45:39;;;;;;;53.70;31.67;;;8.50;83.90;;;;;;4594306;28;20448;-77
2020/12/17 01:47:56;;;;;;;49.60;30.73;;;;;;;;;;4594866;28;20498;-75
2020/12/17 01:50:11;;;;;;;52.43;31.70;;;;;;;;;;4592969;28;20626;-77
2020/12/17 01:52:27;;;;;;;49.27;30.47;;;;;;;;;;4594632;28;20498;-77
2020/12/17 01:54:54;;;;;;;49.57;29.30;;;7.80;77.90;;;;;;4594169;28;20927;-76
2020/12/17 01:57:10;;;;;;;54.80;33.07;;;;;;;;;;4594543;28;20464;-77
2020/12/17 01:59:26;;;;;;;55.37;31.87;;;;;;;;;;4593785;28;20850;-75
2020/12/17 02:01:47;;;;;;;52.87;31.30;;;8.10;78.10;;;;;;4593022;28;20459;-76
2020/12/17 02:04:05;;;;;;;53.93;31.93;;;;;;;;;;4592433;28;20523;-76
2020/12/17 02:06:21;;;;;;;50.73;30.37;;;;;;;;;;4594419;28;20949;-75
2020/12/17 02:08:38;;;;;;;52.87;31.93;;;;;;;;;;4593864;28;20449;-77
2020/12/17 02:10:55;;;;;;;53.33;31.40;;;;;;;;;;4592619;28;20855;-77
2020/12/17 02:13:14;;;;;;;54.27;31.80;;;8.70;78.40;;;;;;4593936;28;20436;-77
2020/12/17 02:15:29;;;;;;;52.70;32.87;;;8.40;83.30;;;;;;4593628;28;20472;-77
2020/12/17 02:17:45;;;;;;;55.53;31.80;;;;;;;;;;4593986;28;20439;-77
2020/12/17 02:20:01;;;;;;;58.27;32.30;;;;;;;;;;4593204;28;20518;-77
2020/12/17 02:22:16;;;;;;;56.27;32.30;;;8.60;83.70;;;;;;4592654;28;20955;-77
2020/12/17 02:24:33;;;;;;;53.60;31.80;;;;;;;;;;4593216;28;20451;-76
2020/12/17 02:26:49;;;;;;;49.63;30.63;;;;;;;;;;4593995;28;20511;-76
2020/12/17 02:29:06;;;;;;;47.47;29.40;;;8.90;83.70;;;;;;4593484;28;20448;-77
2020/12/17 02:31:24;;;;;;;50.00;29.73;;;8.30;78.20;;;;;;4593844;28;20448;-77
2020/12/17 02:33:42;;;;;;;46.67;27.20;;;;;;;;;;4591928;28;20850;-77
2020/12/17 02:35:58;;;;;;;51.27;29.47;;;7.10;82.40;;;;;;4592986;28;20974;-77
2020/12/17 02:38:13;;;;;;;46.90;28.77;;;8.70;83.20;;;;;;4593093;28;21202;-76
2020/12/17 02:40:30;;;;;;;50.33;28.70;;;;;;;;;;4593862;28;20551;-76
2020/12/17 02:42:45;;;;;;;48.07;29.37;;;;;;;;;;4593360;28;20456;-76
2020/12/17 02:45:01;;;;;;;47.13;27.70;;;;;;;;;;4593623;28;20527;-76
2020/12/17 02:47:17;;;;;;;43.83;27.33;;;7.90;82.20;;;;;;4593516;28;20444;-77
2020/12/17 02:49:33;;;;;;;44.30;26.80;;;;;;;;;;4593511;28;20451;-77
2020/12/17 02:51:49;;;;;;;46.20;28.60;;;;;;;;;;4593183;28;20472;-76
2020/12/17 02:54:05;;;;;;;45.07;27.67;;;;;;;;;;4593783;28;20444;-78
2020/12/17 02:56:22;;;;;;;46.60;27.30;;;;;;;;;;4593281;28;20495;-76
2020/12/17 02:58:38;;;;;;;47.03;28.40;;;;;;;;;;4593071;28;20479;-76
2020/12/17 03:00:53;;;;;;;38.53;24.53;;;;;;;;;;4591941;28;20506;-77
2020/12/17 03:03:09;;;;;;;42.47;26.70;;;;;;;;;;4593058;28;21008;-77
2020/12/17 03:05:25;;;;;;;43.70;26.37;;;;;;;;;;4593231;28;20502;-77
2020/12/17 03:07:42;;;;;;;44.03;25.47;;;;;;;;;;4592681;28;20443;-77
2020/12/17 03:09:58;;;;;;;44.13;25.67;;;;;;;;;;4592189;28;20436;-76
2020/12/17 03:12:15;;;;;;;38.87;24.40;;;;;;;;;;4592749;28;20523;-76
2020/12/17 03:14:31;;;;;;;39.70;25.63;;;;;;;;;;4593597;28;20494;-77
2020/12/17 03:16:47;;;;;;;40.83;25.07;;;;;;;;;;4591256;28;20877;-77
2020/12/17 03:19:03;;;;;;;40.47;25.83;;;;;;;;;;4592200;28;20476;-78
2020/12/17 03:21:19;;;;;;;42.27;26.53;;;;;;;;;;4592612;28;20483;-77
2020/12/17 03:23:35;;;;;;;43.80;26.57;;;7.90;81.70;;;;;;4593147;28;20452;-78
2020/12/17 03:25:51;;;;;;;41.87;25.37;;;;;;;;;;4591190;28;20436;-77
2020/12/17 03:28:07;;;;;;;40.27;24.87;;;;;;;;;;4593066;28;20444;-76
2020/12/17 03:30:24;;;;;;;41.70;26.43;;;;;;;;;;4592791;28;20487;-76
2020/12/17 03:32:39;;;;;;;40.70;25.60;;;;;;;;;;4593305;28;20499;-78
2020/12/17 03:34:55;;;;;;;41.97;26.90;;;;;;;;;;4592487;28;20495;-77
2020/12/17 03:37:11;;;;;;;43.27;27.30;;;;;;;;;;4592751;28;20483;-76
2020/12/17 03:39:27;;;;;;;45.60;27.27;;;;;;;;;;4592331;28;20445;-76
2020/12/17 03:41:42;;;;;;;46.70;27.77;;;;;;;;;;4593118;28;20827;-76
2020/12/17 03:43:59;;;;;;;45.60;27.50;;;;;;;;;;4592490;28;20444;-76
2020/12/17 03:46:15;;;;;;;44.40;25.67;;;;;;;;;;4593236;28;21013;-76
2020/12/17 03:48:30;;;;;;;43.97;27.07;;;9.00;82.70;;;;;;4595244;28;20440;-75
2020/12/17 03:50:46;;;;;;;44.83;27.07;;;;;;;;;;4596071;28;20444;-77
2020/12/17 03:53:02;;;;;;;44.43;26.83;;;9.10;82.80;;;;;;4596599;28;21088;-76
2020/12/17 03:55:17;;;;;;;46.47;26.17;;;6.30;81.00;;;;;;4594834;28;20845;-76
2020/12/17 03:57:33;;;;;;;40.87;25.30;;;;;;;;;;4596581;28;20475;-76
2020/12/17 03:59:50;;;;;;;42.80;26.20;;;;;;;;;;4596094;28;20794;-75
2020/12/17 04:02:07;;;;;;;44.03;26.37;;;;;;;;;;4595095;28;20444;-76
2020/12/17 04:04:22;;;;;;;43.00;26.23;;;;;;;;;;4595961;28;20813;-78
2020/12/17 04:06:38;;;;;;;43.93;26.83;;;;;;;;;;4596352;28;20459;-77
2020/12/17 04:08:54;;;;;;;40.17;25.17;;;;;;;;;;4594437;28;20444;-76
2020/12/17 04:11:10;;;;;;;42.30;25.93;;;7.60;82.10;;;;;;4595126;28;20895;-76
2020/12/17 04:13:26;;;;;;;46.23;26.20;;;;;;;;;;4595531;28;20451;-76
2020/12/17 04:15:42;;;;;;;45.90;26.67;;;;;;;;;;4596028;28;20477;-75
2020/12/17 04:17:57;;;;;;;44.23;26.23;;;6.40;81.80;;;;;;4595612;28;20954;-76
2020/12/17 04:20:13;;;;;;;41.87;25.47;;;;;;;;;;4595955;28;20479;-77
2020/12/17 04:22:29;;;;;;;49.70;27.57;;;;;;;;;;4595730;28;20467;-76
2020/12/17 04:24:45;;;;;;;45.37;26.87;;;6.60;81.80;;;;;;4596074;28;20827;-77
2020/12/17 04:27:02;;;;;;;43.53;26.67;;;;;;;;;;4595370;28;20444;-78
2020/12/17 04:29:18;;;;;;;43.63;27.47;;;;;;;;;;4596042;28;20446;-76
2020/12/17 04:31:34;;;;;;;46.87;26.13;;;;;;;;;;4593822;28;20834;-77
2020/12/17 04:33:52;;;;;;;41.97;25.43;;;;;;;;;;4594681;28;20440;-78
2020/12/17 04:36:08;;;;;;;42.17;26.47;;;7.10;82.80;;;;;;4595323;28;20483;-75
2020/12/17 04:38:24;;;;;;;35.90;22.27;;;;;;;;;;4595404;28;20452;-77
2020/12/17 04:40:42;;;;;;;42.80;25.17;;;;;;;;;;4596244;28;20992;-77
2020/12/17 04:42:57;;;;;;;36.57;23.53;;;;;;;;;;4594891;28;20452;-77
2020/12/17 04:45:16;;;;;;;42.53;26.20;;;8.20;83.30;;;;;;4595674;28;20440;-77
2020/12/17 04:47:33;;;;;;;36.70;24.13;;;;;;;;;;4594902;28;20542;-77
2020/12/17 04:49:53;;;;;;;35.67;22.50;;;8.60;77.80;;;;;;4595808;28;20424;-77
2020/12/17 04:52:14;;;;;;;34.63;20.90;;;8.80;77.60;;;;;;4594678;28;20432;-76
2020/12/17 04:54:31;;;;;;;29.03;19.70;;;6.00;75.50;;;;;;4595394;28;20902;-78
2020/12/17 04:56:47;;;;;;;31.33;21.87;;;;;;;;;;4593372;28;20514;-75
2020/12/17 04:59:03;;;;;;;36.00;21.50;;;;;;;;;;4594452;28;20448;-79
2020/12/17 05:01:19;;;;;;;29.50;19.63;;;5.90;75.00;;;;;;4593452;28;20519;-76
2020/12/17 05:03:35;;;;;;;28.50;18.43;;;8.70;81.80;;;;;;4593955;28;20504;-76
2020/12/17 05:05:52;;;;;;;27.87;18.87;;;9.40;82.00;;;;;;4594735;28;20931;-77
2020/12/17 05:08:08;;;;;;;27.63;18.50;;;;;;;;;;4595065;28;20443;-76
2020/12/17 05:10:23;;;;;;;30.37;19.20;;;;;;;;;;4594604;28;20444;-76
2020/12/17 05:12:39;;;;;;;27.57;18.43;;;;;;;;;;4595634;28;20444;-77
2020/12/17 05:14:56;;;;;;;27.90;18.87;;;;;;;;;;4594690;28;20951;-76
2020/12/17 05:17:12;;;;;;;28.60;19.23;;;;;;;;;;4595093;28;20483;-77
2020/12/17 05:19:28;;;;;;;28.13;18.37;;;;;;;;;;4594569;28;20560;-76
2020/12/17 05:21:44;;;;;;;26.87;18.57;;;;;;;;;;4594948;28;20969;-76
2020/12/17 05:24:03;;;;;;;23.40;16.20;;;;;;;;;;4594663;28;20935;-76
2020/12/17 05:26:24;;;;;;;33.30;22.67;;;8.50;75.70;;;;;;4593060;28;20440;-76
2020/12/17 05:28:40;;;;;;;37.37;22.23;;;;;;;;;;4594921;28;20945;-78
2020/12/17 05:30:56;;;;;;;31.70;21.03;;;;;;;;;;4594324;28;20452;-75
2020/12/17 05:33:12;;;;;;;30.67;20.60;;;6.30;74.20;;;;;;4594994;28;20443;-75
2020/12/17 05:35:34;;;;;;;29.97;19.33;;;;;;;;;;4594167;28;20451;-76
2020/12/17 05:37:50;;;;;;;34.13;21.87;;;;;;;;;;4594582;28;20475;-76
2020/12/17 05:40:06;;;;;;;38.63;23.60;;;;;;;;;;4593773;28;20450;-77
2020/12/17 05:42:22;;;;;;;41.23;24.03;;;7.00;80.30;;;;;;4594584;28;20869;-77
2020/12/17 05:44:38;;;;;;;39.47;25.20;;;;;;;;;;4594040;28;20448;-77
2020/12/17 05:46:54;;;;;;;44.63;26.17;;;;;;;;;;4594180;28;20440;-76
2020/12/17 05:49:19;;;;;;;52.23;27.57;;;;;;;;;;4593776;28;20833;-75
2020/12/17 05:51:39;;;;;;;48.33;28.37;;;;;;;;;;4594435;28;20931;-76
2020/12/17 05:53:57;;;;;;;47.63;28.23;;;;;;;;;;4594361;28;20502;-76
2020/12/17 05:56:14;;;;;;;49.50;29.60;;;;;;;;;;4594216;28;20549;-76
2020/12/17 05:58:37;;;;;;;53.03;29.23;;;;;;;;;;4593868;28;20889;-78
2020/12/17 06:01:09;;;;;;;53.80;31.30;;;6.40;75.30;;;;;;4594206;28;20432;-78
2020/12/17 06:03:28;;;;;;;51.50;29.90;;;;;;;;;;4593042;28;20635;-76
2020/12/17 06:05:44;;;;;;;48.80;28.00;;;;;;;;;;4593586;28;20421;-79
2020/12/17 06:08:06;;;;;;;51.07;27.97;;;;;;;;;;4594306;28;20440;-77
2020/12/17 06:10:22;;;;;;;47.10;28.17;;;;;;;;;;4593045;28;21083;-77
2020/12/17 06:12:38;;;;;;;50.53;28.40;;;;;;;;;;4593833;28;21086;-77
2020/12/17 06:14:54;;;;;;;49.23;27.93;;;;;;;;;;4593134;28;20455;-78
2020/12/17 06:17:10;;;;;;;44.17;26.77;;;;;;;;;;4592444;28;20482;-79
2020/12/17 06:19:26;;;;;;;38.50;23.83;;;7.80;81.40;;;;;;4593124;28;20507;-78
2020/12/17 06:21:42;;;;;;;42.17;25.60;;;7.00;81.00;;;;;;4593627;28;20452;-78
2020/12/17 06:24:00;;;;;;;45.87;27.07;;;8.70;76.70;;;;;;4593526;28;20574;-78
2020/12/17 06:26:16;;;;;;;45.50;25.90;;;;;;;;;;4593568;28;20911;-77
2020/12/17 06:28:39;;;;;;;46.70;27.37;;;7.00;75.30;;;;;;4595070;28;20949;-77
2020/12/17 06:30:57;;;;;;;45.07;26.87;;;6.30;75.20;;;;;;4592193;28;20448;-80
2020/12/17 06:33:13;;;;;;;45.90;27.00;;;;;;;;;;4593842;28;20486;-80
2020/12/17 06:35:51;;;;;;;51.50;27.93;;;6.40;75.30;;;;;;4593607;28;20467;-80
2020/12/17 06:38:09;;;;;;;46.53;28.17;;;;;;;;;;4592957;28;20431;-78
2020/12/17 06:40:28;;;;;;;51.53;28.77;;;;;;;;;;4593069;28;20460;-79
2020/12/17 06:42:44;;;;;;;45.67;28.97;;;;;;;;;;4592848;28;20812;-79
2020/12/17 06:45:01;;;;;;;50.97;28.33;;;;;;;;;;4592891;28;20935;-79
2020/12/17 06:47:27;;;;;;;52.83;28.53;;;;;;;;;;4593852;28;21068;-78
2020/12/17 06:49:44;;;;;;;47.40;28.37;;;;;;;;;;4593339;28;20480;-79
2020/12/17 06:52:07;;;;;;;46.13;26.70;;;;;;;;;;4593850;28;20506;-79
2020/12/17 06:54:40;;;;;;;50.97;30.03;;;;;;;;;;4591812;28;20409;-79
2020/12/17 06:57:04;;;;;;;52.90;28.53;;;;;;;;;;4592055;28;20468;-80
2020/12/17 06:59:21;;;;;;;50.70;28.63;;;;;;;;;;4592171;28;20438;-79
2020/12/17 07:01:38;;;;;;;55.10;30.87;;;;;;;;;;4593252;28;20471;-78
2020/12/17 07:03:54;;;;;;;43.90;27.10;;;;;;;;;;4591719;28;20447;-79
2020/12/17 07:06:18;;;;;;;39.07;25.03;;;9.10;76.20;;;;;;4593093;28;20535;-79
2020/12/17 07:08:36;;;;;;;47.90;26.70;;;;;;;;;;4591964;28;20432;-79
2020/12/17 07:10:54;;;;;;;49.77;27.93;;;;;;;;;;4592799;28;20455;-79
2020/12/17 07:13:31;;;;;;;45.03;27.00;;;7.40;80.90;;;;;;4592960;28;20471;-76
2020/12/17 07:15:47;;;;;;;50.90;29.60;;;;;;;;;;4591819;28;20522;-76
2020/12/17 07:18:22;;;;;;;54.20;29.73;;;8.10;75.90;;;;;;4592512;28;20966;-77
2020/12/17 07:20:38;;;;;;;57.50;29.90;;;;;;;;;;4556375;28;20799;-76
2020/12/17 07:22:54;;;;;;;52.03;29.90;;;;;;;;;;4556493;28;20797;-78
2020/12/17 07:25:11;;;;;;;53.80;30.07;;;;;;;;;;4539853;28;20446;-77
2020/12/17 07:27:28;;;;;;;46.20;26.60;;;;;;;;;;4557478;28;20452;-79
2020/12/17 07:29:48;;;;;;;50.53;28.13;;;;;;;;;;4558527;28;20480;-79
2020/12/17 07:32:24;;;;;;;46.13;26.70;;;;;;;;;;4557119;28;20445;-78
2020/12/17 07:34:40;;;;;;;47.30;27.23;;;;;;;;;;4557485;28;20429;-78
2020/12/17 07:36:56;;;;;;;43.07;25.93;;;;;;;;;;4555793;28;20469;-79
2020/12/17 07:39:13;;;;;;;44.50;25.37;;;;;;;;;;4555435;28;20936;-79
2020/12/17 07:41:28;;;;;;;46.77;26.07;;;;;;;;;;4556136;28;20536;-79
2020/12/17 07:43:44;;;;;;;49.77;28.37;;;;;;;;;;4557228;28;20889;-79
2020/12/17 07:46:04;;;;;;;50.70;28.67;;;;;;;;;;4555724;28;20442;-78
2020/12/17 07:48:42;;;;;;;53.87;29.70;;;7.10;74.70;;;;;;4556528;28;20429;-79
2020/12/17 07:50:58;;;;;;;60.73;32.07;;;;;;;;;;4554735;28;20441;-75
2020/12/17 07:53:23;;;;;;;64.43;32.00;;;6.40;75.00;;;;;;4555940;28;20449;-78
2020/12/17 07:55:40;;;;;;;63.10;32.50;;;;;;;;;;4556106;28;20943;-78
2020/12/17 07:57:58;;;;;;;60.38;32.20;;;;;;;;;;4537970;28;20453;-78
2020/12/17 08:00:14;;;;;;;58.90;32.23;;;;;;;;;;4556593;28;20572;-80
2020/12/17 08:02:31;;;;;;;69.00;33.40;;;;;;;;;;4554899;28;20544;-76
2020/12/17 08:04:47;;;;;;;60.33;32.90;;;;;;;;;;4556556;28;20960;-80
2020/12/17 08:07:06;;;;;;;61.37;31.83;;;8.50;76.60;;;;;;4556495;28;20449;-77
2020/12/17 08:09:23;;;;;;;65.47;32.40;;;;;;;;;;4555242;28;20477;-80
2020/12/17 08:11:39;;;;;;;67.77;33.47;;;;;;;;;;4555010;28;20516;-76
2020/12/17 08:13:59;;;;;;;73.43;34.83;;;;;;;;;;4556563;28;20498;-79
2020/12/17 08:16:15;;;;;;;71.90;34.40;;;;;;;;;;4555596;28;20422;-78
2020/12/17 08:18:33;;;;;;;73.53;35.03;;;8.00;76.70;;;;;;4562963;28;20898;-77
2020/12/17 08:20:49;;;;;;;65.27;34.77;;;;;;;;;;4591680;28;20428;-80
2020/12/17 08:23:14;;;;;;;71.90;33.97;;;;;;;;;;4591153;28;20925;-80
2020/12/17 08:25:30;;;;;;;70.60;34.57;;;;;;;;;;4590511;28;20885;-81
2020/12/17 08:27:46;;;;;;;65.17;34.67;;;;;;;;;;4591674;28;20447;-80
2020/12/17 08:30:03;;;;;;;71.23;34.43;;;;;;;;;;4591702;28;20440;-78
2020/12/17 08:32:18;;;;;;;69.83;33.80;;;;;;;;;;4592363;28;20859;-79
2020/12/17 08:34:35;;;;;;;58.10;30.37;;;;;;;;;;4595315;28;20447;-80
2020/12/17 08:36:54;;;;;;;63.17;30.93;;;;;;;;;;4593893;28;20506;-80
2020/12/17 08:39:12;;;;;;;61.20;30.00;;;8.40;77.00;;;;;;4594896;28;20490;-79
2020/12/17 08:41:38;;;;;;;58.77;31.57;;;;;;;;;;4594712;28;21053;-78
2020/12/17 08:43:55;;;;;;;65.03;33.63;;;;;;;;;;4594809;28;20520;-78
2020/12/17 08:46:17;;;;;;;63.27;31.43;;;;;;;;;;4594405;28;20471;-78
2020/12/17 08:48:33;;;;;;;68.23;33.20;;;;;;;;;;4594818;28;20428;-80
2020/12/17 08:50:51;;;;;;;62.83;33.37;;;;;;;;;;4576776;28;20929;-78
2020/12/17 08:53:18;;;;;;;54.20;30.13;;;;;;;;;;4595224;28;20535;-79
2020/12/17 08:55:35;;;;;;;61.97;31.03;;;;;;;;;;4593815;28;20435;-78
2020/12/17 08:57:51;;;;;;;55.73;30.17;;;;;;;;;;4594908;28;20601;-82
2020/12/17 09:00:13;;;;;;;58.37;30.57;;;;;;;;;;4594443;28;20440;-78
2020/12/17 09:02:29;;;;;;;54.90;30.43;;;;;;;;;;4593009;28;20455;-79
2020/12/17 09:04:54;;;;;;;53.80;30.27;;;8.70;76.90;;;;;;4592925;28;20805;-78
2020/12/17 09:07:11;;;;;;;51.90;28.47;;;;;;;;;;4575381;28;20911;-76
2020/12/17 09:09:28;;;;;;;43.83;25.87;;;;;;;;;;4559116;28;20450;-76
2020/12/17 09:11:53;;;;;;;40.50;24.40;;;;;;;;;;4574970;28;20511;-77
2020/12/17 09:14:10;;;;;;;32.77;20.70;;;;;;;;;;4576514;28;20508;-77
2020/12/17 09:16:28;;;;;;;37.60;22.80;;;8.60;76.00;;;;;;4576404;28;20515;-77
2020/12/17 09:18:54;;;;;;;31.80;20.60;;;8.60;76.20;;;;;;4575740;28;20472;-77
2020/12/17 09:21:11;;;;;;;30.43;19.37;;;;;;;;;;4575919;28;20445;-82
2020/12/17 09:23:28;;;;;;;41.97;23.33;;;;;;;;;;4576853;28;20472;-79
2020/12/17 09:25:44;;;;;;;40.73;24.27;;;;;;;;;;4575094;28;20449;-77
2020/12/17 09:28:00;;;;;;;32.83;21.43;;;;;;;;;;4576182;28;20441;-79
2020/12/17 09:30:17;;;;;;;32.17;19.97;;;8.40;75.70;;;;;;4574009;28;20488;-76
2020/12/17 09:32:35;;;;;;;33.33;21.20;;;;;;;;;;4575824;28;20791;-79
2020/12/17 09:34:50;;;;;;;31.37;19.10;;;;;;;;;;4575658;28;21043;-80
2020/12/17 09:37:11;;;;;;;24.60;16.97;;;;;;;;;;4576180;28;20479;-79
2020/12/17 09:39:30;;;;;;;22.50;15.27;;;;;;;;;;4575865;28;20469;-78
2020/12/17 09:41:55;;;;;;;16.23;12.60;;;;;;;;;;4575334;28;20808;-78
2020/12/17 09:44:12;;;;;;;20.17;14.17;;;;;;;;;;4574803;28;20568;-78
2020/12/17 09:46:40;;;;;;;22.30;14.77;;;;;;;;;;4576630;28;20472;-79
2020/12/17 09:48:59;;;;;;;18.33;13.33;;;;;;;;;;4574516;28;20489;-77
2020/12/17 09:51:20;;;;;;;18.00;13.70;;;;;;;;;;4575444;28;20995;-77
2020/12/17 09:53:38;;;;;;;31.20;20.63;;;8.80;73.70;;;;;;4575572;28;20440;-77
2020/12/17 09:55:58;;;;;;;63.87;27.17;;;;;;;;;;4574874;28;20471;-79
2020/12/17 09:58:14;;;;;;;52.70;29.17;;;;;;;;;;4575737;28;20861;-80
2020/12/17 10:00:29;;;;;;;45.83;28.53;;;;;;;;;;4575074;28;21001;-77
2020/12/17 10:02:45;;;;;;;58.37;28.40;;;;;;;;;;4575654;28;20907;-79
2020/12/17 10:05:04;;;;;;;52.33;30.77;;;;;;;;;;4575666;28;20488;-77
2020/12/17 10:07:21;;;;;;;54.10;29.57;;;;;;;;;;4576134;28;20492;-79
2020/12/17 10:09:39;;;;;;;52.57;29.73;;;;;;;;;;4575105;28;20784;-76
2020/12/17 10:11:57;;;;;;;52.27;28.90;;;;;;;;;;4575548;28;20473;-77
2020/12/17 10:14:13;;;;;;;44.47;26.80;;;;;;;;;;4575250;28;20449;-77
2020/12/17 10:16:29;;;;;;;41.57;26.07;;;;;;;;;;4575427;28;20437;-77
2020/12/17 10:18:45;;;;;;;40.60;24.70;;;;;;;;;;4575123;28;20850;-77
2020/12/17 10:21:03;;;;;;;40.53;24.70;;;;;;;;;;4574856;28;20425;-78
2020/12/17 10:23:19;;;;;;;32.80;21.17;;;;;;;;;;4574041;28;20942;-80
2020/12/17 10:25:36;;;;;;;22.47;15.63;;;;;;;;;;4573302;28;20445;-77
2020/12/17 10:27:55;;;;;;;23.77;16.53;;;8.60;74.10;;;;;;4574811;28;20433;-78
2020/12/17 10:30:11;;;;;;;22.13;14.90;;;;;;;;;;4575000;28;20484;-79
2020/12/17 10:32:27;;;;;;;21.53;15.90;;;;;;;;;;4575498;28;20425;-77
2020/12/17 10:34:43;;;;;;;23.20;17.13;;;;;;;;;;4574351;28;20449;-78
2020/12/17 10:36:59;;;;;;;27.53;17.93;;;;;;;;;;4574524;28;20480;-77
2020/12/17 10:39:15;;;;;;;20.20;13.43;;;;;;;;;;4574226;28;20456;-77
2020/12/17 10:41:31;;;;;;;21.53;14.40;;;;;;;;;;4575124;28;20536;-78
2020/12/17 10:43:47;;;;;;;21.10;14.13;;;;;;;;;;4574173;28;20460;-78
2020/12/17 10:46:04;;;;;;;22.53;15.93;;;;;;;;;;4575245;28;21002;-79
2020/12/17 10:48:20;;;;;;;15.33;11.70;;;;;;;;;;4574296;28;20433;-79
2020/12/17 10:50:35;;;;;;;19.50;13.70;;;;;;;;;;4574690;28;20809;-78
2020/12/17 10:52:51;;;;;;;23.50;14.70;;;;;;;;;;4573972;28;20476;-81
2020/12/17 10:55:07;;;;;;;25.20;15.53;;;;;;;;;;4574861;28;20495;-80
2020/12/17 10:57:24;;;;;;;23.07;15.30;;;;;;;;;;4573473;28;20476;-83
2020/12/17 10:59:42;;;;;;;17.30;13.07;;;;;;;;;;4575490;28;20800;-82
2020/12/17 11:01:58;;;;;;;20.30;13.83;;;;;;;;;;4574121;28;20911;-79
2020/12/17 11:04:14;;;;;;;17.33;12.97;;;;;;;;;;4575113;28;20437;-80
2020/12/17 11:06:30;;;;;;;20.47;14.47;;;;;;;;;;4573197;28;20445;-79
2020/12/17 11:08:45;;;;;;;25.17;16.17;;;;;;;;;;4574645;28;20449;-77
2020/12/17 11:11:02;;;;;;;24.67;15.73;;;;;;;;;;4574498;28;20437;-77
2020/12/17 11:13:18;;;;;;;22.40;14.47;;;;;;;;;;4573934;28;20492;-79
2020/12/17 11:15:35;;;;;;;17.57;13.50;;;;;;;;;;4572673;28;20807;-79
2020/12/17 11:17:50;;;;;;;23.63;15.67;;;;;;;;;;4572674;28;20476;-79
2020/12/17 11:20:07;;;;;;;16.07;12.10;;;;;;;;;;4574277;28;20484;-77
2020/12/17 11:22:22;;;;;;;17.23;12.30;;;;;;;;;;4573855;28;20440;-77
2020/12/17 11:24:38;;;;;;;20.53;13.53;;;;;;;;;;4574117;28;20528;-78
2020/12/17 11:26:54;;;;;;;23.10;14.63;;;;;;;;;;4573296;28;20456;-77
2020/12/17 11:29:10;;;;;;;16.47;11.90;;;;;;;;;;4578010;28;20527;-90
2020/12/17 11:31:30;;;;;;;9.43;7.53;;;;;;;;;;4576556;28;20516;-90
2020/12/17 11:33:48;;;;;;;10.20;8.10;;;;;;;;;;4582696;28;20429;-89
2020/12/17 11:36:05;;;;;;;12.33;8.33;;;;;;;;;;4579750;28;20441;-87
2020/12/17 11:38:24;;;;;;;11.93;9.17;;;;;;;;;;4577388;28;21078;-86
2020/12/17 11:40:40;;;;;;;13.47;10.40;;;;;;;;;;4582000;28;20433;-83
2020/12/17 11:42:56;;;;;;;17.33;11.20;;;;;;;;;;4575771;28;20473;-91
2020/12/17 11:45:13;;;;;;;55.77;39.07;;;8.00;77.30;;;;;;4575988;28;20441;-84
2020/12/17 11:47:31;;;;;;;16.33;12.35;;;;;;;;;;4574857;28;20450;-81
2020/12/17 11:49:48;;;;;;;16.33;11.13;;;;;;;;;;4573284;28;20184;-87
2020/12/17 11:52:04;;;;;;;13.67;10.80;;;;;;;;;;4577747;28;20473;-86
2020/12/17 11:54:20;;;;;;;16.33;11.43;;;;;;;;;;4575661;28;20456;-88
2020/12/17 11:56:37;;;;;;;16.93;12.00;;;;;;;;;;4584853;28;20444;-87
2020/12/17 11:58:54;;;;;;;15.20;11.47;;;;;;;;;;4575961;28;20487;-88
2020/12/17 12:01:10;;;;;;;16.37;11.03;;;;;;;;;;4577972;28;20441;-84
2020/12/17 12:03:27;;;;;;;15.13;10.70;;;;;;;;;;4575974;28;20459;-88
2020/12/17 12:05:42;;;;;;;19.40;12.07;;;;;;;;;;4579672;28;20440;-87
2020/12/17 12:07:59;;;;;;;16.13;12.10;;;;;;;;;;4577840;28;20451;-88
2020/12/17 12:10:15;;;;;;;16.90;11.50;;;;;;;;;;4587729;28;20412;-91
2020/12/17 12:12:31;;;;;;;15.50;12.33;;;;;;;;;;4589036;28;20472;-90
2020/12/17 12:14:53;;;;;;;13.57;12.10;;;;;;;;;;4579982;28;20847;-80
2020/12/17 12:17:08;;;;;;;18.10;13.03;;;;;;;;;;4582186;28;20445;-87
2020/12/17 12:19:25;;;;;;;15.43;10.70;;;;;;;;;;4589555;28;20465;-89
2020/12/17 12:21:41;;;;;;;12.23;10.13;;;;;;;;;;4579008;28;20452;-87
2020/12/17 12:23:58;;;;;;;12.23;10.00;;;;;;;;;;4583751;28;20923;-89
2020/12/17 12:26:14;;;;;;;12.97;10.97;;;;;;;;;;4565772;28;20988;-85
2020/12/17 12:28:31;;;;;;;13.23;10.97;;;;;;;;;;4579973;28;20440;-86
2020/12/17 12:30:47;;;;;;;14.67;10.30;;;;;;;;;;4585711;28;20444;-90
2020/12/17 12:33:03;;;;;;;13.37;9.10;;;;;;;;;;4584095;28;20472;-89
2020/12/17 12:35:21;;;;;;;12.87;9.83;;;;;;;;;;4581803;28;20429;-89
2020/12/17 12:37:37;;;;;;;13.47;10.83;;;;;;;;;;4584489;28;20511;-86
2020/12/17 12:39:56;;;;;;;18.87;14.10;;;;;;;;;;4578894;28;20429;-90
2020/12/17 12:42:13;;;;;;;28.13;16.00;;;;;;;;;;4578237;28;20464;-81
2020/12/17 12:44:29;;;;;;;24.93;15.70;;;;;;;;;;4578019;28;20468;-86
2020/12/17 12:46:48;;;;;;;20.47;14.17;;;;;;;;;;4577595;28;20527;-81
2020/12/17 12:49:04;;;;;;;20.70;15.20;;;;;;;;;;4579288;28;20444;-85
2020/12/17 12:51:24;;;;;;;17.70;13.63;;;;;;;;;;4577626;28;20536;-81
2020/12/17 12:53:48;;;;;;;21.17;14.20;;;;;;;;;;4581045;28;20440;-87
2020/12/17 12:56:28;;;;;;;18.90;13.23;;;;;;;;;;4577005;28;20516;-87
2020/12/17 12:58:44;;;;;;;16.60;12.43;;;;;;;;;;4578361;28;20511;-87
2020/12/17 13:01:01;;;;;;;19.47;14.37;;;;;;;;;;4578559;28;20441;-87